createdAt,value
2022-10-14T00:01:24.701Z,101349.34
2022-10-14T00:03:51.718Z,101351.63
2022-10-14T00:06:21.326Z,101344.31
2022-10-14T00:08:47.709Z,101343.97
2022-10-14T00:11:16.969Z,101339.69
2022-10-14T00:13:43.481Z,101336.69
2022-10-14T00:16:37.467Z,101341.84
2022-10-14T00:19:04.828Z,101351.09
2022-10-14T00:21:31.617Z,101342.19
2022-10-14T00:23:58.050Z,101345.72
2022-10-14T00:26:33.004Z,101346.34
2022-10-14T00:29:00.682Z,101341.72
2022-10-14T00:31:28.096Z,101342.81
2022-10-14T00:33:55.151Z,101339.50
2022-10-14T00:36:24.186Z,101334.66
2022-10-14T00:38:51.381Z,101333.56
2022-10-14T00:41:23.991Z,101338.53
2022-10-14T00:43:54.833Z,101328.09
2022-10-14T00:46:21.500Z,101333.69
2022-10-14T00:48:47.922Z,101337.75
2022-10-14T00:51:14.471Z,101333.16
2022-10-14T00:53:42.663Z,101338.19
2022-10-14T00:56:10.969Z,101339.69
2022-10-14T00:58:38.411Z,101335.84
2022-10-14T01:01:05.000Z,101328.31
2022-10-14T01:03:33.857Z,101339.69
2022-10-14T01:06:23.468Z,101336.91
2022-10-14T01:09:14.443Z,101330.22
2022-10-14T01:12:30.277Z,101339.16
2022-10-14T01:15:11.723Z,101335.28
2022-10-14T01:17:50.252Z,101334.53
2022-10-14T01:20:31.973Z,101329.38
2022-10-14T01:23:07.389Z,101329.38
2022-10-14T01:26:03.016Z,101329.38
2022-10-14T01:28:40.007Z,101331.72
2022-10-14T01:31:13.478Z,101325.72
2022-10-14T01:33:45.088Z,101329.38
2022-10-14T01:36:22.594Z,101325.59
2022-10-14T01:39:02.321Z,101316.50
2022-10-14T01:41:32.082Z,101318.97
2022-10-14T01:44:03.343Z,101314.97
2022-10-14T01:46:30.665Z,101314.34
2022-10-14T01:49:03.401Z,101305.53
2022-10-14T01:51:42.431Z,101308.09
2022-10-14T01:54:12.706Z,101300.59
2022-10-14T01:56:40.670Z,101299.41
2022-10-14T01:59:08.533Z,101307.44
2022-10-14T02:01:36.607Z,101292.97
2022-10-14T02:04:03.160Z,101297.91
2022-10-14T02:06:34.868Z,101297.91
2022-10-14T02:09:29.050Z,101291.44
2022-10-14T02:12:08.657Z,101292.72
2022-10-14T02:14:44.830Z,101286.81
2022-10-14T02:17:33.480Z,101286.81
2022-10-14T02:20:08.843Z,101289.63
2022-10-14T02:22:38.534Z,101283.91
2022-10-14T02:25:13.365Z,101282.31
2022-10-14T02:27:39.959Z,101291.56
2022-10-14T02:30:07.653Z,101281.44
2022-10-14T02:32:34.218Z,101291.03
2022-10-14T02:35:01.078Z,101284.34
2022-10-14T02:37:28.327Z,101292.09
2022-10-14T02:40:06.174Z,101292.94
2022-10-14T02:42:32.981Z,101294.88
2022-10-14T02:45:00.615Z,101293.56
2022-10-14T02:47:27.390Z,101284.47
2022-10-14T02:49:54.133Z,101289.28
2022-10-14T02:52:20.916Z,101281.69
2022-10-14T02:54:47.558Z,101284.47
2022-10-14T02:57:13.970Z,101287.47
2022-10-14T02:59:40.374Z,101283.84
2022-10-14T03:02:07.592Z,101284.69
2022-10-14T03:04:34.868Z,101280.59
2022-10-14T03:07:01.448Z,101270.94
2022-10-14T03:09:27.845Z,101268.25
2022-10-14T03:11:54.243Z,101272.97
2022-10-14T03:14:20.613Z,101270.19
2022-10-14T03:16:47.185Z,101270.19
2022-10-14T03:19:13.573Z,101265.25
2022-10-14T03:21:40.125Z,101259.56
2022-10-14T03:24:06.966Z,101256.97
2022-10-14T03:26:33.677Z,101255.59
2022-10-14T03:29:00.148Z,101251.81
2022-10-14T03:31:26.682Z,101241.81
2022-10-14T03:33:53.163Z,101248.69
2022-10-14T03:36:19.604Z,101245.38
2022-10-14T03:38:45.992Z,101254.72
2022-10-14T03:41:12.390Z,101249.25
2022-10-14T03:43:38.775Z,101249.75
2022-10-14T03:46:05.328Z,101247.19
2022-10-14T03:48:31.712Z,101248.81
2022-10-14T03:50:58.101Z,101248.91
2022-10-14T03:53:24.563Z,101252.09
2022-10-14T03:55:50.976Z,101254.88
2022-10-14T03:58:17.439Z,101258.25
2022-10-14T04:00:44.703Z,101249.00
2022-10-14T04:03:11.134Z,101245.25
2022-10-14T04:05:37.633Z,101248.16
2022-10-14T04:08:04.248Z,101245.13
2022-10-14T04:10:31.090Z,101250.72
2022-10-14T04:12:57.601Z,101254.91
2022-10-14T04:15:24.278Z,101253.53
2022-10-14T04:17:50.693Z,101247.19
2022-10-14T04:20:17.729Z,101253.97
2022-10-14T04:22:44.385Z,101258.88
2022-10-14T04:25:10.896Z,101242.78
2022-10-14T04:27:37.436Z,101245.13
2022-10-14T04:30:05.258Z,101243.88
2022-10-14T04:32:31.980Z,101243.09
2022-10-14T04:34:58.414Z,101243.31
2022-10-14T04:37:24.835Z,101245.38
2022-10-14T04:39:51.226Z,101237.13
2022-10-14T04:42:17.736Z,101230.53
2022-10-14T04:44:44.121Z,101228.41
2022-10-14T04:47:10.561Z,101226.88
2022-10-14T04:49:36.937Z,101242.97
2022-10-14T04:52:03.474Z,101233.88
2022-10-14T04:54:30.745Z,101232.91
2022-10-14T04:56:57.167Z,101243.97
2022-10-14T04:59:23.569Z,101236.44
2022-10-14T05:01:50.015Z,101236.88
2022-10-14T05:04:16.513Z,101229.47
2022-10-14T05:06:43.017Z,101230.88
2022-10-14T05:09:09.450Z,101229.47
2022-10-14T05:11:35.864Z,101230.75
2022-10-14T05:14:02.404Z,101235.03
2022-10-14T05:16:28.946Z,101226.88
2022-10-14T05:18:55.311Z,101236.88
2022-10-14T05:21:21.741Z,101230.66
2022-10-14T05:23:48.281Z,101236.44
2022-10-14T05:26:14.793Z,101238.81
2022-10-14T05:28:41.262Z,101230.97
2022-10-14T05:31:07.766Z,101225.19
2022-10-14T05:33:34.617Z,101223.41
2022-10-14T05:36:01.038Z,101228.50
2022-10-14T05:38:27.540Z,101230.31
2022-10-14T05:40:55.725Z,101239.66
2022-10-14T05:43:22.365Z,101241.31
2022-10-14T05:45:48.871Z,101229.13
2022-10-14T05:48:15.270Z,101228.16
2022-10-14T05:50:42.179Z,101215.91
2022-10-14T05:53:08.545Z,101222.16
2022-10-14T05:55:35.126Z,101216.16
2022-10-14T05:58:01.566Z,101213.22
2022-10-14T06:00:28.568Z,101218.59
2022-10-14T06:02:57.857Z,101213.97
2022-10-14T06:05:24.534Z,101218.69
2022-10-14T06:07:50.931Z,101217.19
2022-10-14T06:10:17.621Z,101218.03
2022-10-14T06:12:44.022Z,101221.19
2022-10-14T06:15:10.648Z,101216.56
2022-10-14T06:17:37.130Z,101221.94
2022-10-14T06:20:03.631Z,101216.44
2022-10-14T06:22:30.831Z,101227.72
2022-10-14T06:25:00.506Z,101210.94
2022-10-14T06:27:30.453Z,101208.81
2022-10-14T06:29:56.822Z,101209.47
2022-10-14T06:32:23.839Z,101218.56
2022-10-14T06:34:50.554Z,101210.50
2022-10-14T06:37:17.018Z,101219.00
2022-10-14T06:39:45.056Z,101226.63
2022-10-14T06:42:13.257Z,101219.66
2022-10-14T06:44:39.809Z,101220.28
2022-10-14T06:47:07.001Z,101211.41
2022-10-14T06:49:33.431Z,101217.13
2022-10-14T06:51:59.842Z,101209.38
2022-10-14T06:54:26.213Z,101213.03
2022-10-14T06:56:52.633Z,101213.66
2022-10-14T06:59:19.550Z,101212.78
2022-10-14T07:01:46.093Z,101215.03
2022-10-14T07:04:12.574Z,101200.66
2022-10-14T07:06:39.102Z,101206.56
2022-10-14T07:09:05.624Z,101216.16
2022-10-14T07:11:32.037Z,101202.41
2022-10-14T07:13:58.931Z,101202.47
2022-10-14T07:16:25.409Z,101211.03
2022-10-14T07:18:51.862Z,101208.78
2022-10-14T07:21:18.473Z,101208.56
2022-10-14T07:23:44.937Z,101212.03
2022-10-14T07:26:11.540Z,101221.03
2022-10-14T07:28:38.209Z,101222.66
2022-10-14T07:31:09.540Z,101217.28
2022-10-14T07:36:16.070Z,101213.63
2022-10-14T07:38:45.575Z,101215.91
2022-10-14T07:41:18.069Z,101217.00
2022-10-14T07:43:49.418Z,101217.13
2022-10-14T07:46:17.947Z,101224.97
2022-10-14T07:48:56.783Z,101222.31
2022-10-14T07:51:24.437Z,101225.31
2022-10-14T07:53:52.834Z,101219.63
2022-10-14T07:56:19.362Z,101218.91
2022-10-14T07:58:46.526Z,101211.63
2022-10-14T08:01:15.771Z,101208.69
2022-10-14T08:03:43.279Z,101211.50
2022-10-14T08:06:10.009Z,101211.81
2022-10-14T08:08:36.511Z,101214.06
2022-10-14T08:11:17.196Z,101211.53
2022-10-14T08:13:46.376Z,101215.28
2022-10-14T08:16:23.207Z,101214.09
2022-10-14T08:18:50.288Z,101207.19
2022-10-14T08:21:17.507Z,101209.59
2022-10-14T08:23:43.895Z,101194.00
2022-10-14T08:26:26.453Z,101196.72
2022-10-14T08:28:52.943Z,101199.69
2022-10-14T08:31:20.281Z,101200.56
2022-10-14T08:33:47.260Z,101199.19
2022-10-14T08:36:14.048Z,101203.09
2022-10-14T08:38:41.076Z,101208.16
2022-10-14T08:41:26.078Z,101208.09
2022-10-14T08:44:19.410Z,101197.16
2022-10-14T08:46:52.234Z,101201.50
2022-10-14T08:49:31.121Z,101205.38
2022-10-14T08:52:03.816Z,101210.78
2022-10-14T08:54:57.926Z,101205.94
2022-10-14T08:57:31.718Z,101208.03
2022-10-14T08:59:58.143Z,101199.66
2022-10-14T09:02:36.557Z,101196.25
2022-10-14T09:05:03.820Z,101192.84
2022-10-14T09:07:32.311Z,101209.44
2022-10-14T09:10:02.654Z,101206.91
2022-10-14T09:12:31.164Z,101200.44
2022-10-14T09:15:16.088Z,101208.66
2022-10-14T09:18:02.105Z,101198.44
2022-10-14T09:20:28.537Z,101199.69
2022-10-14T09:23:20.630Z,101199.59
2022-10-14T09:26:12.088Z,101192.66
2022-10-14T09:28:40.707Z,101198.06
2022-10-14T09:31:11.391Z,101186.41
2022-10-14T09:33:42.588Z,101188.69
2022-10-14T09:36:20.700Z,101185.81
2022-10-14T09:38:51.534Z,101194.88
2022-10-14T09:41:20.410Z,101188.41
2022-10-14T09:44:23.923Z,101176.28
2022-10-14T09:46:52.991Z,101182.56
2022-10-14T09:49:26.142Z,101176.28
2022-10-14T09:51:52.618Z,101174.13
2022-10-14T09:54:24.995Z,101172.31
2022-10-14T09:57:07.988Z,101170.56
2022-10-14T09:59:48.253Z,101170.88
2022-10-14T10:02:35.196Z,101168.72
2022-10-14T10:05:32.089Z,101166.03
2022-10-14T10:08:31.103Z,101166.88
2022-10-14T10:11:06.666Z,101171.81
2022-10-14T10:13:46.281Z,101171.44
2022-10-14T10:16:25.463Z,101166.63
2022-10-14T10:18:53.983Z,101158.41
2022-10-14T10:21:30.343Z,101158.34
2022-10-14T10:23:59.179Z,101160.63
2022-10-14T10:26:31.759Z,101151.03
2022-10-14T10:28:59.596Z,101142.94
2022-10-14T10:31:48.235Z,101152.00
2022-10-14T10:34:36.551Z,101141.06
2022-10-14T10:37:16.098Z,101142.19
2022-10-14T10:40:05.712Z,101136.50
2022-10-14T10:42:35.770Z,101135.78
2022-10-14T10:45:16.367Z,101137.91
2022-10-14T10:47:59.480Z,101129.91
2022-10-14T10:50:30.519Z,101124.97
2022-10-14T10:53:20.391Z,101120.78
2022-10-14T10:55:59.228Z,101115.09
2022-10-14T10:58:41.069Z,101109.75
2022-10-14T11:01:45.244Z,101111.63
2022-10-14T11:04:34.445Z,101104.06
2022-10-14T11:07:27.022Z,101100.06
2022-10-14T11:10:28.379Z,101104.06
2022-10-14T11:13:23.084Z,101106.94
2022-10-14T11:15:58.581Z,101103.59
2022-10-14T11:18:34.930Z,101104.53
2022-10-14T11:21:10.364Z,101103.75
2022-10-14T11:23:59.853Z,101097.78
2022-10-14T11:26:51.449Z,101101.56
2022-10-14T11:29:35.295Z,101096.38
2022-10-14T11:32:14.947Z,101086.38
2022-10-14T11:35:09.664Z,101081.50
2022-10-14T11:38:05.159Z,101090.75
2022-10-14T11:40:38.145Z,101073.72
2022-10-14T11:43:22.834Z,101076.47
2022-10-14T11:45:59.579Z,101074.22
2022-10-14T11:48:30.170Z,101076.38
2022-10-14T11:51:05.179Z,101075.44
2022-10-14T11:53:45.229Z,101069.81
2022-10-14T11:56:25.760Z,101070.03
2022-10-14T11:58:54.066Z,101062.03
2022-10-14T12:01:25.259Z,101059.84
2022-10-14T12:04:04.873Z,101065.09
2022-10-14T12:06:35.716Z,101062.69
2022-10-14T12:09:14.738Z,101058.88
2022-10-14T12:11:50.088Z,101037.44
2022-10-14T12:14:23.634Z,101043.41
2022-10-14T12:16:50.896Z,101051.75
2022-10-14T12:19:26.569Z,101043.44
2022-10-14T12:22:04.997Z,101043.59
2022-10-14T12:24:37.321Z,101037.41
2022-10-14T12:27:05.865Z,101037.53
2022-10-14T12:29:36.879Z,101026.50
2022-10-14T12:32:03.201Z,101030.66
2022-10-14T12:34:40.527Z,101024.22
2022-10-14T12:37:28.885Z,101023.69
2022-10-14T12:40:03.827Z,101013.81
2022-10-14T12:42:32.669Z,101010.97
2022-10-14T12:45:04.885Z,101012.41
2022-10-14T12:47:36.020Z,101007.47
2022-10-14T12:50:28.882Z,100993.09
2022-10-14T12:53:02.383Z,100995.06
2022-10-14T12:55:30.299Z,100998.09
2022-10-14T12:58:03.561Z,100995.81
2022-10-14T13:00:39.093Z,100994.84
2022-10-14T13:03:17.280Z,100993.22
2022-10-14T13:05:44.808Z,100984.84
2022-10-14T13:08:20.281Z,100976.84
2022-10-14T13:11:14.903Z,100974.94
2022-10-14T13:13:53.584Z,100967.69
2022-10-14T13:16:26.339Z,100974.31
2022-10-14T13:18:59.666Z,100970.88
2022-10-14T13:21:31.165Z,100969.19
2022-10-14T13:24:00.920Z,100957.94
2022-10-14T13:26:52.473Z,100962.47
2022-10-14T13:29:40.238Z,100951.25
2022-10-14T13:32:27.186Z,100958.38
2022-10-14T13:35:14.834Z,100946.66
2022-10-14T13:37:54.171Z,100942.47
2022-10-14T13:40:30.041Z,100941.19
2022-10-14T13:42:58.213Z,100934.53
2022-10-14T13:45:32.234Z,100936.16
2022-10-14T13:47:59.357Z,100924.69
2022-10-14T13:50:31.538Z,100923.72
2022-10-14T13:53:01.010Z,100920.69
2022-10-14T13:55:27.498Z,100916.22
2022-10-14T13:58:12.490Z,100912.19
2022-10-14T14:00:43.087Z,100907.50
2022-10-14T14:03:19.615Z,100907.69
2022-10-14T14:05:46.200Z,100905.78
2022-10-14T14:11:21.489Z,100905.25
2022-10-14T14:14:01.498Z,100898.75
2022-10-14T14:16:36.858Z,100901.03
2022-10-14T14:19:08.418Z,100889.00
2022-10-14T14:21:35.842Z,100887.66
2022-10-14T14:24:03.961Z,100874.72
2022-10-14T14:26:35.860Z,100870.41
2022-10-14T14:29:24.676Z,100866.09
2022-10-14T14:32:06.114Z,100861.75
2022-10-14T14:34:34.614Z,100854.53
2022-10-14T14:37:10.995Z,100858.44
2022-10-14T14:39:58.920Z,100863.66
2022-10-14T14:42:32.221Z,100859.75
2022-10-14T14:45:04.958Z,100853.66
2022-10-14T14:47:31.639Z,100848.63
2022-10-14T14:50:24.981Z,100844.66
2022-10-14T14:52:47.215Z,100841.47
2022-10-14T14:55:41.104Z,100845.44
2022-10-14T14:58:21.536Z,100838.34
2022-10-14T15:00:49.873Z,100833.81
2022-10-14T15:03:16.439Z,100823.84
2022-10-14T15:05:53.144Z,100835.06
2022-10-14T15:08:24.301Z,100819.25
2022-10-14T15:10:51.250Z,100822.56
2022-10-14T15:13:37.940Z,100820.69
2022-10-14T15:16:05.013Z,100812.19
2022-10-14T15:18:32.054Z,100813.13
2022-10-14T15:21:19.119Z,100815.91
2022-10-14T15:24:00.248Z,100816.88
2022-10-14T15:26:31.286Z,100803.28
2022-10-14T15:29:06.012Z,100807.38
2022-10-14T15:31:32.682Z,100795.09
2022-10-14T15:33:59.380Z,100804.22
2022-10-14T15:36:26.569Z,100798.72
2022-10-14T15:38:56.604Z,100795.28
2022-10-14T15:41:22.976Z,100792.50
2022-10-14T15:43:49.583Z,100788.59
2022-10-14T15:46:34.548Z,100789.16
2022-10-14T15:49:03.722Z,100788.59
2022-10-14T15:51:31.284Z,100785.41
2022-10-14T15:53:58.259Z,100779.38
2022-10-14T15:56:24.709Z,100777.09
2022-10-14T15:58:51.265Z,100772.91
2022-10-14T16:01:20.453Z,100766.31
2022-10-14T16:03:48.089Z,100763.63
2022-10-14T16:06:16.015Z,100760.38
2022-10-14T16:08:42.891Z,100759.19
2022-10-14T16:11:18.122Z,100759.34
2022-10-14T16:13:44.721Z,100753.59
2022-10-14T16:16:12.877Z,100747.44
2022-10-14T16:18:39.302Z,100737.75
2022-10-14T16:21:05.992Z,100742.56
2022-10-14T16:23:34.402Z,100737.78
2022-10-14T16:26:01.148Z,100738.66
2022-10-14T16:28:27.767Z,100739.06
2022-10-14T16:30:54.182Z,100742.13
2022-10-14T16:33:21.999Z,100738.16
2022-10-14T16:35:53.617Z,100731.91
2022-10-14T16:38:20.356Z,100736.41
2022-10-14T16:40:57.455Z,100726.50
2022-10-14T16:43:24.887Z,100738.16
2022-10-14T16:45:51.372Z,100732.19
2022-10-14T16:48:19.375Z,100732.09
2022-10-14T16:50:50.413Z,100736.44
2022-10-14T16:53:36.036Z,100733.69
2022-10-14T16:56:02.758Z,100733.69
2022-10-14T16:58:29.323Z,100732.56
2022-10-14T17:00:56.072Z,100729.94
2022-10-14T17:03:22.823Z,100731.44
2022-10-14T17:05:56.745Z,100736.28
2022-10-14T17:08:23.230Z,100730.78
2022-10-14T17:10:49.779Z,100738.56
2022-10-14T17:13:17.371Z,100724.16
2022-10-14T17:15:44.270Z,100730.19
2022-10-14T17:18:12.456Z,100724.13
2022-10-14T17:20:39.238Z,100730.44
2022-10-14T17:23:10.238Z,100715.94
2022-10-14T17:25:39.242Z,100720.56
2022-10-14T17:28:05.840Z,100717.22
2022-10-14T17:30:32.218Z,100718.09
2022-10-14T17:32:58.633Z,100716.16
2022-10-14T17:35:25.041Z,100715.69
2022-10-14T17:37:51.573Z,100708.25
2022-10-14T17:40:18.089Z,100706.75
2022-10-14T17:42:44.729Z,100708.69
2022-10-14T17:45:11.217Z,100700.97
2022-10-14T17:47:37.653Z,100690.53
2022-10-14T17:50:05.354Z,100696.38
2022-10-14T17:52:31.764Z,100694.00
2022-10-14T17:55:00.583Z,100697.88
2022-10-14T17:57:28.019Z,100694.97
2022-10-14T17:59:54.576Z,100692.56
2022-10-14T18:02:21.506Z,100697.59
2022-10-14T18:04:48.140Z,100691.34
2022-10-14T18:07:15.278Z,100691.06
2022-10-14T18:09:43.482Z,100673.88
2022-10-14T18:12:11.272Z,100679.22
2022-10-14T18:14:38.690Z,100669.28
2022-10-14T18:17:05.240Z,100666.59
2022-10-14T18:19:31.982Z,100654.50
2022-10-14T18:21:58.447Z,100677.88
2022-10-14T18:24:24.961Z,100679.13
2022-10-14T18:26:52.169Z,100672.66
2022-10-14T18:29:18.624Z,100684.38
2022-10-14T18:31:45.086Z,100683.44
2022-10-14T18:34:11.834Z,100685.84
2022-10-14T18:36:38.749Z,100673.38
2022-10-14T18:39:07.898Z,100672.66
2022-10-14T18:41:34.848Z,100672.69
2022-10-14T18:44:01.305Z,100675.50
2022-10-14T18:46:32.711Z,100672.34
2022-10-14T18:49:00.395Z,100665.91
2022-10-14T18:51:33.183Z,100655.72
2022-10-14T18:54:02.392Z,100650.66
2022-10-14T18:56:34.205Z,100657.47
2022-10-14T19:01:37.161Z,100645.13
2022-10-14T19:04:05.533Z,100644.38
2022-10-14T19:06:32.833Z,100645.25
2022-10-14T19:09:01.619Z,100636.28
2022-10-14T19:11:29.084Z,100632.63
2022-10-14T19:13:57.221Z,100632.44
2022-10-14T19:16:28.991Z,100618.47
2022-10-14T19:18:57.316Z,100631.47
2022-10-14T19:21:26.758Z,100624.41
2022-10-14T19:23:53.233Z,100614.38
2022-10-14T19:26:23.194Z,100616.09
2022-10-14T19:28:50.228Z,100610.44
2022-10-14T19:31:19.052Z,100607.28
2022-10-14T19:33:46.054Z,100614.09
2022-10-14T19:36:14.648Z,100610.72
2022-10-14T19:38:49.664Z,100608.69
2022-10-14T19:41:16.147Z,100604.41
2022-10-14T19:43:42.649Z,100606.66
2022-10-14T19:46:10.695Z,100602.47
2022-10-14T19:48:37.422Z,100594.16
2022-10-14T19:51:07.042Z,100600.88
2022-10-14T19:53:33.985Z,100597.22
2022-10-14T19:56:04.929Z,100600.50
2022-10-14T19:58:31.370Z,100599.78
2022-10-14T20:00:58.290Z,100591.03
2022-10-14T20:03:24.758Z,100588.50
2022-10-14T20:06:00.941Z,100590.81
2022-10-14T20:08:27.407Z,100583.03
2022-10-14T20:10:53.797Z,100587.59
2022-10-14T20:13:20.352Z,100578.03
2022-10-14T20:15:53.722Z,100583.53
2022-10-14T20:18:20.168Z,100572.19
2022-10-14T20:20:46.755Z,100579.41
2022-10-14T20:23:13.169Z,100579.13
2022-10-14T20:25:41.270Z,100570.38
2022-10-14T20:28:08.184Z,100570.59
2022-10-14T20:30:35.023Z,100566.13
2022-10-14T20:33:01.437Z,100570.28
2022-10-14T20:37:55.259Z,100574.97
2022-10-14T20:40:21.646Z,100570.78
2022-10-14T20:42:48.189Z,100576.38
2022-10-14T20:45:14.830Z,100573.66
2022-10-14T20:47:41.313Z,100578.75
2022-10-14T20:50:08.267Z,100575.22
2022-10-14T20:52:34.768Z,100574.56
2022-10-14T20:55:01.220Z,100566.47
2022-10-14T20:57:27.664Z,100562.31
2022-10-14T20:59:54.123Z,100557.66
2022-10-14T21:02:21.261Z,100558.78
2022-10-14T21:04:49.234Z,100561.94
2022-10-14T21:07:16.109Z,100554.59
2022-10-14T21:09:42.472Z,100544.72
2022-10-14T21:12:08.878Z,100536.94
2022-10-14T21:14:35.653Z,100542.91
2022-10-14T21:17:02.321Z,100543.16
2022-10-14T21:19:28.746Z,100534.91
2022-10-14T21:21:55.402Z,100530.16
2022-10-14T21:24:22.288Z,100527.84
2022-10-14T21:26:52.034Z,100538.44
2022-10-14T21:29:19.624Z,100530.25
2022-10-14T21:31:46.727Z,100541.03
2022-10-14T21:34:13.136Z,100535.09
2022-10-14T21:36:39.937Z,100539.72
2022-10-14T21:39:11.867Z,100539.00
2022-10-14T21:41:38.894Z,100533.59
2022-10-14T21:44:06.208Z,100529.69
2022-10-14T21:46:33.512Z,100539.47
2022-10-14T21:49:00.217Z,100537.31
2022-10-14T21:51:28.795Z,100531.66
2022-10-14T21:53:55.417Z,100534.16
2022-10-14T21:56:22.048Z,100535.44
2022-10-14T21:58:48.497Z,100534.72
2022-10-14T22:01:17.535Z,100535.94
2022-10-14T22:03:44.619Z,100536.84
2022-10-14T22:06:14.399Z,100539.19
2022-10-14T22:08:42.658Z,100535.44
2022-10-14T22:11:20.123Z,100542.78
2022-10-14T22:13:46.927Z,100536.59
2022-10-14T22:16:16.657Z,100528.50
2022-10-14T22:18:46.662Z,100533.41
2022-10-14T22:21:15.462Z,100525.41
2022-10-14T22:23:42.111Z,100528.78
2022-10-14T22:26:12.351Z,100524.25
2022-10-14T22:28:38.911Z,100523.78
2022-10-14T22:31:11.223Z,100528.59
2022-10-14T22:33:38.899Z,100516.34
2022-10-14T22:36:19.466Z,100522.66
2022-10-14T22:38:50.199Z,100523.78
2022-10-14T22:41:17.962Z,100519.69
2022-10-14T22:43:49.488Z,100518.38
2022-10-14T22:46:19.467Z,100519.50
2022-10-14T22:48:47.207Z,100516.34
2022-10-14T22:51:15.990Z,100506.47
2022-10-14T22:53:43.491Z,100516.69
2022-10-14T22:56:13.144Z,100512.19
2022-10-14T22:58:39.684Z,100517.69
2022-10-14T23:01:13.800Z,100524.44
2022-10-14T23:03:40.731Z,100525.41
2022-10-14T23:06:09.698Z,100525.19
2022-10-14T23:08:36.603Z,100535.03
2022-10-14T23:11:04.256Z,100533.88
2022-10-14T23:13:31.077Z,100533.31
2022-10-14T23:16:02.723Z,100538.75
2022-10-14T23:18:30.465Z,100546.09
2022-10-14T23:20:57.049Z,100542.06
2022-10-14T23:23:23.805Z,100542.44
2022-10-14T23:25:50.211Z,100538.28
2022-10-14T23:28:16.730Z,100537.97
2022-10-14T23:30:43.181Z,100541.59
2022-10-14T23:33:11.717Z,100541.91
2022-10-14T23:35:39.022Z,100544.03
2022-10-14T23:38:05.430Z,100550.13
2022-10-14T23:40:31.876Z,100542.25
2022-10-14T23:42:58.362Z,100543.19
2022-10-14T23:45:24.807Z,100549.91
2022-10-14T23:47:51.241Z,100536.97
2022-10-14T23:50:17.676Z,100545.16
2022-10-14T23:52:45.930Z,100542.63
2022-10-14T23:55:12.989Z,100545.03
2022-10-14T23:57:40.255Z,100537.59
